sensor_id;sensor_type;location;lat;lon;timestamp;P1;durP1;ratioP1;P2;durP2;ratioP2
42666;SDS011;28280;49.646;14.130;2023-05-07T00:03:31;6.93;;;4.88;;
42666;SDS011;28280;49.646;14.130;2023-05-07T00:13:53;7.18;;;4.60;;
42666;SDS011;28280;49.646;14.130;2023-05-07T00:24:14;7.57;;;5.40;;
42666;SDS011;28280;49.646;14.130;2023-05-07T00:34:36;9.18;;;4.93;;
42666;SDS011;28280;49.646;14.130;2023-05-07T00:44:57;6.30;;;4.53;;
42666;SDS011;28280;49.646;14.130;2023-05-07T00:55:20;7.30;;;4.80;;
42666;SDS011;28280;49.646;14.130;2023-05-07T01:05:42;10.85;;;4.88;;
42666;SDS011;28280;49.646;14.130;2023-05-07T01:16:05;7.55;;;5.03;;
42666;SDS011;28280;49.646;14.130;2023-05-07T01:26:27;6.65;;;4.85;;
42666;SDS011;28280;49.646;14.130;2023-05-07T01:36:49;6.30;;;4.40;;
42666;SDS011;28280;49.646;14.130;2023-05-07T01:47:10;6.25;;;4.53;;
42666;SDS011;28280;49.646;14.130;2023-05-07T01:57:33;9.07;;;5.07;;
42666;SDS011;28280;49.646;14.130;2023-05-07T02:07:55;7.82;;;4.85;;
42666;SDS011;28280;49.646;14.130;2023-05-07T02:18:20;6.93;;;5.03;;
42666;SDS011;28280;49.646;14.130;2023-05-07T02:28:41;5.93;;;4.65;;
42666;SDS011;28280;49.646;14.130;2023-05-07T02:39:03;7.95;;;5.28;;
42666;SDS011;28280;49.646;14.130;2023-05-07T02:49:25;5.93;;;4.60;;
42666;SDS011;28280;49.646;14.130;2023-05-07T02:59:47;6.47;;;4.47;;
42666;SDS011;28280;49.646;14.130;2023-05-07T03:10:10;6.90;;;4.93;;
42666;SDS011;28280;49.646;14.130;2023-05-07T03:20:32;8.40;;;4.82;;
42666;SDS011;28280;49.646;14.130;2023-05-07T03:30:53;6.80;;;5.15;;
42666;SDS011;28280;49.646;14.130;2023-05-07T03:41:15;6.80;;;5.28;;
42666;SDS011;28280;49.646;14.130;2023-05-07T03:51:38;8.18;;;5.00;;
42666;SDS011;28280;49.646;14.130;2023-05-07T04:02:01;7.80;;;5.78;;
42666;SDS011;28280;49.646;14.130;2023-05-07T04:12:27;7.85;;;5.53;;
42666;SDS011;28280;49.646;14.130;2023-05-07T04:22:49;9.48;;;5.65;;
42666;SDS011;28280;49.646;14.130;2023-05-07T04:33:11;8.25;;;5.93;;
42666;SDS011;28280;49.646;14.130;2023-05-07T04:43:36;9.00;;;6.03;;
42666;SDS011;28280;49.646;14.130;2023-05-07T04:53:58;29.20;;;13.43;;
42666;SDS011;28280;49.646;14.130;2023-05-07T05:04:23;56.78;;;21.40;;
42666;SDS011;28280;49.646;14.130;2023-05-07T05:14:45;44.25;;;18.77;;
42666;SDS011;28280;49.646;14.130;2023-05-07T05:25:07;40.33;;;16.77;;
42666;SDS011;28280;49.646;14.130;2023-05-07T05:35:29;42.05;;;16.73;;
42666;SDS011;28280;49.646;14.130;2023-05-07T05:45:52;31.30;;;13.80;;
42666;SDS011;28280;49.646;14.130;2023-05-07T05:56:13;28.73;;;12.93;;
42666;SDS011;28280;49.646;14.130;2023-05-07T06:06:34;27.98;;;12.38;;
42666;SDS011;28280;49.646;14.130;2023-05-07T06:16:57;22.83;;;11.40;;
42666;SDS011;28280;49.646;14.130;2023-05-07T06:27:20;25.55;;;10.38;;
42666;SDS011;28280;49.646;14.130;2023-05-07T06:37:42;20.92;;;10.32;;
42666;SDS011;28280;49.646;14.130;2023-05-07T06:48:09;17.00;;;9.50;;
42666;SDS011;28280;49.646;14.130;2023-05-07T06:58:40;20.35;;;10.15;;
42666;SDS011;28280;49.646;14.130;2023-05-07T07:09:03;18.98;;;9.18;;
42666;SDS011;28280;49.646;14.130;2023-05-07T07:19:25;20.45;;;9.88;;
42666;SDS011;28280;49.646;14.130;2023-05-07T07:29:49;18.13;;;9.13;;
42666;SDS011;28280;49.646;14.130;2023-05-07T07:40:11;15.57;;;8.45;;
42666;SDS011;28280;49.646;14.130;2023-05-07T07:50:35;15.15;;;8.40;;
42666;SDS011;28280;49.646;14.130;2023-05-07T08:01:08;14.65;;;8.00;;
42666;SDS011;28280;49.646;14.130;2023-05-07T08:11:30;14.50;;;8.55;;
42666;SDS011;28280;49.646;14.130;2023-05-07T08:21:52;13.27;;;7.80;;
42666;SDS011;28280;49.646;14.130;2023-05-07T08:32:15;11.80;;;7.07;;
42666;SDS011;28280;49.646;14.130;2023-05-07T08:42:36;10.77;;;6.82;;
42666;SDS011;28280;49.646;14.130;2023-05-07T08:52:59;11.00;;;7.28;;
42666;SDS011;28280;49.646;14.130;2023-05-07T09:03:21;11.32;;;7.28;;
42666;SDS011;28280;49.646;14.130;2023-05-07T09:13:46;8.93;;;6.65;;
42666;SDS011;28280;49.646;14.130;2023-05-07T09:24:07;11.00;;;7.03;;
42666;SDS011;28280;49.646;14.130;2023-05-07T09:44:55;8.95;;;6.85;;
42666;SDS011;28280;49.646;14.130;2023-05-07T09:55:20;9.90;;;6.33;;
42666;SDS011;28280;49.646;14.130;2023-05-07T10:05:42;8.35;;;6.03;;
42666;SDS011;28280;49.646;14.130;2023-05-07T10:16:06;9.40;;;6.38;;
42666;SDS011;28280;49.646;14.130;2023-05-07T10:26:34;9.30;;;6.82;;
42666;SDS011;28280;49.646;14.130;2023-05-07T10:36:56;10.90;;;6.53;;
42666;SDS011;28280;49.646;14.130;2023-05-07T10:47:18;8.45;;;5.93;;
42666;SDS011;28280;49.646;14.130;2023-05-07T11:08:18;8.13;;;6.10;;
42666;SDS011;28280;49.646;14.130;2023-05-07T11:18:52;8.52;;;6.18;;
42666;SDS011;28280;49.646;14.130;2023-05-07T11:29:24;7.03;;;5.45;;
42666;SDS011;28280;49.646;14.130;2023-05-07T11:40:01;8.82;;;6.00;;
42666;SDS011;28280;49.646;14.130;2023-05-07T11:50:27;7.10;;;5.60;;
42666;SDS011;28280;49.646;14.130;2023-05-07T12:00:49;7.00;;;5.50;;
42666;SDS011;28280;49.646;14.130;2023-05-07T12:11:29;6.72;;;5.43;;
42666;SDS011;28280;49.646;14.130;2023-05-07T12:21:50;7.40;;;5.15;;
42666;SDS011;28280;49.646;14.130;2023-05-07T12:32:18;6.75;;;5.07;;
42666;SDS011;28280;49.646;14.130;2023-05-07T12:42:41;5.75;;;4.35;;
42666;SDS011;28280;49.646;14.130;2023-05-07T12:53:05;5.55;;;4.78;;
42666;SDS011;28280;49.646;14.130;2023-05-07T13:03:33;6.63;;;4.65;;
42666;SDS011;28280;49.646;14.130;2023-05-07T13:13:55;5.38;;;4.47;;
42666;SDS011;28280;49.646;14.130;2023-05-07T13:24:16;5.35;;;4.30;;
42666;SDS011;28280;49.646;14.130;2023-05-07T13:34:37;5.20;;;3.92;;
42666;SDS011;28280;49.646;14.130;2023-05-07T13:44:58;5.75;;;4.20;;
42666;SDS011;28280;49.646;14.130;2023-05-07T13:55:21;5.90;;;4.32;;
42666;SDS011;28280;49.646;14.130;2023-05-07T14:05:43;5.15;;;3.95;;
42666;SDS011;28280;49.646;14.130;2023-05-07T14:16:07;5.35;;;4.10;;
42666;SDS011;28280;49.646;14.130;2023-05-07T14:26:28;5.20;;;4.10;;
42666;SDS011;28280;49.646;14.130;2023-05-07T14:36:50;4.50;;;3.75;;
42666;SDS011;28280;49.646;14.130;2023-05-07T14:47:11;4.95;;;4.05;;
42666;SDS011;28280;49.646;14.130;2023-05-07T14:57:32;4.80;;;3.80;;
42666;SDS011;28280;49.646;14.130;2023-05-07T15:07:55;4.70;;;3.80;;
42666;SDS011;28280;49.646;14.130;2023-05-07T15:18:17;3.67;;;3.17;;
42666;SDS011;28280;49.646;14.130;2023-05-07T15:28:42;5.03;;;3.90;;
42666;SDS011;28280;49.646;14.130;2023-05-07T15:39:04;4.38;;;3.30;;
42666;SDS011;28280;49.646;14.130;2023-05-07T15:49:26;4.25;;;3.10;;
42666;SDS011;28280;49.646;14.130;2023-05-07T15:59:47;4.75;;;3.40;;
42666;SDS011;28280;49.646;14.130;2023-05-07T16:10:09;3.97;;;3.30;;
42666;SDS011;28280;49.646;14.130;2023-05-07T16:20:31;3.47;;;3.15;;
42666;SDS011;28280;49.646;14.130;2023-05-07T16:30:53;3.60;;;3.13;;
42666;SDS011;28280;49.646;14.130;2023-05-07T16:41:14;3.97;;;3.10;;
42666;SDS011;28280;49.646;14.130;2023-05-07T16:51:35;3.55;;;3.13;;
42666;SDS011;28280;49.646;14.130;2023-05-07T17:01:56;3.75;;;3.35;;
42666;SDS011;28280;49.646;14.130;2023-05-07T17:12:19;5.07;;;4.07;;
42666;SDS011;28280;49.646;14.130;2023-05-07T17:22:41;5.53;;;4.43;;
42666;SDS011;28280;49.646;14.130;2023-05-07T17:33:02;5.05;;;4.53;;
42666;SDS011;28280;49.646;14.130;2023-05-07T17:43:40;5.60;;;4.78;;
42666;SDS011;28280;49.646;14.130;2023-05-07T17:54:01;6.50;;;4.72;;
42666;SDS011;28280;49.646;14.130;2023-05-07T18:04:22;5.72;;;4.70;;
42666;SDS011;28280;49.646;14.130;2023-05-07T18:14:46;5.20;;;4.70;;
42666;SDS011;28280;49.646;14.130;2023-05-07T18:25:07;5.68;;;4.20;;
42666;SDS011;28280;49.646;14.130;2023-05-07T18:35:29;6.15;;;4.88;;
42666;SDS011;28280;49.646;14.130;2023-05-07T18:45:51;4.95;;;4.45;;
42666;SDS011;28280;49.646;14.130;2023-05-07T18:56:12;4.85;;;4.05;;
42666;SDS011;28280;49.646;14.130;2023-05-07T19:06:34;5.13;;;4.22;;
42666;SDS011;28280;49.646;14.130;2023-05-07T19:16:55;6.80;;;4.60;;
42666;SDS011;28280;49.646;14.130;2023-05-07T19:27:16;6.82;;;4.68;;
42666;SDS011;28280;49.646;14.130;2023-05-07T19:37:37;5.65;;;4.82;;
42666;SDS011;28280;49.646;14.130;2023-05-07T19:47:59;5.47;;;4.72;;
42666;SDS011;28280;49.646;14.130;2023-05-07T19:58:20;5.18;;;4.15;;
42666;SDS011;28280;49.646;14.130;2023-05-07T20:08:42;5.25;;;4.18;;
42666;SDS011;28280;49.646;14.130;2023-05-07T20:19:04;5.28;;;3.97;;
42666;SDS011;28280;49.646;14.130;2023-05-07T20:29:25;5.15;;;4.10;;
42666;SDS011;28280;49.646;14.130;2023-05-07T20:39:48;4.50;;;3.70;;
42666;SDS011;28280;49.646;14.130;2023-05-07T20:50:09;5.18;;;3.63;;
42666;SDS011;28280;49.646;14.130;2023-05-07T21:00:31;3.78;;;3.38;;
42666;SDS011;28280;49.646;14.130;2023-05-07T21:10:52;5.70;;;3.80;;
42666;SDS011;28280;49.646;14.130;2023-05-07T21:21:14;4.22;;;3.50;;
42666;SDS011;28280;49.646;14.130;2023-05-07T21:31:36;3.97;;;2.92;;
42666;SDS011;28280;49.646;14.130;2023-05-07T21:41:58;4.97;;;3.70;;
42666;SDS011;28280;49.646;14.130;2023-05-07T21:52:19;4.18;;;3.47;;
42666;SDS011;28280;49.646;14.130;2023-05-07T22:02:45;4.53;;;3.30;;
42666;SDS011;28280;49.646;14.130;2023-05-07T22:13:06;4.28;;;3.58;;
42666;SDS011;28280;49.646;14.130;2023-05-07T22:23:28;4.22;;;3.63;;
42666;SDS011;28280;49.646;14.130;2023-05-07T22:33:49;4.07;;;3.40;;
42666;SDS011;28280;49.646;14.130;2023-05-07T22:44:11;3.83;;;3.13;;
42666;SDS011;28280;49.646;14.130;2023-05-07T22:54:33;4.22;;;3.55;;
42666;SDS011;28280;49.646;14.130;2023-05-07T23:04:54;4.72;;;3.55;;
42666;SDS011;28280;49.646;14.130;2023-05-07T23:15:18;3.72;;;3.13;;
42666;SDS011;28280;49.646;14.130;2023-05-07T23:25:39;4.45;;;3.55;;
42666;SDS011;28280;49.646;14.130;2023-05-07T23:36:00;3.80;;;3.40;;
42666;SDS011;28280;49.646;14.130;2023-05-07T23:46:23;4.32;;;3.13;;
42666;SDS011;28280;49.646;14.130;2023-05-07T23:56:44;4.18;;;3.40;;
